createdAt,value
2022-12-25T00:01:12.143Z,100.00
2022-12-25T00:03:39.225Z,100.00
2022-12-25T00:06:08.336Z,100.00
2022-12-25T00:08:36.564Z,100.00
2022-12-25T00:11:06.726Z,100.00
2022-12-25T00:13:33.445Z,100.00
2022-12-25T00:16:00.413Z,100.00
2022-12-25T00:18:27.071Z,100.00
2022-12-25T00:21:04.721Z,100.00
2022-12-25T00:23:33.932Z,100.00
2022-12-25T00:26:08.395Z,100.00
2022-12-25T00:28:36.022Z,100.00
2022-12-25T00:31:14.725Z,100.00
2022-12-25T00:33:43.661Z,99.85
2022-12-25T00:36:12.181Z,99.91
2022-12-25T00:38:40.212Z,99.93
2022-12-25T00:41:12.420Z,100.00
2022-12-25T00:43:39.426Z,100.00
2022-12-25T00:46:07.809Z,100.00
2022-12-25T00:48:35.298Z,100.00
2022-12-25T00:51:05.640Z,100.00
2022-12-25T00:53:33.047Z,99.97
2022-12-25T00:56:03.225Z,99.92
2022-12-25T00:58:31.986Z,99.84
2022-12-25T01:00:58.904Z,99.51
2022-12-25T01:03:26.659Z,99.49
2022-12-25T01:06:01.956Z,99.34
2022-12-25T01:08:31.872Z,99.42
2022-12-25T01:11:01.683Z,99.46
2022-12-25T01:13:31.992Z,99.37
2022-12-25T01:15:58.803Z,99.51
2022-12-25T01:18:26.364Z,99.18
2022-12-25T01:20:53.376Z,99.41
2022-12-25T01:23:20.013Z,99.38
2022-12-25T01:25:46.725Z,99.46
2022-12-25T01:28:13.547Z,99.69
2022-12-25T01:30:40.362Z,99.62
2022-12-25T01:33:07.233Z,99.95
2022-12-25T01:35:33.961Z,100.00
2022-12-25T01:38:00.669Z,100.00
2022-12-25T01:40:27.320Z,100.00
2022-12-25T01:42:53.985Z,100.00
2022-12-25T01:45:42.412Z,100.00
2022-12-25T01:48:14.534Z,100.00
2022-12-25T01:50:45.701Z,100.00
2022-12-25T01:53:12.728Z,100.00
2022-12-25T01:55:41.989Z,100.00
2022-12-25T01:58:09.570Z,100.00
2022-12-25T02:00:36.352Z,100.00
2022-12-25T02:03:04.254Z,100.00
2022-12-25T02:05:33.856Z,100.00
2022-12-25T02:08:08.445Z,100.00
2022-12-25T02:10:35.200Z,100.00
2022-12-25T02:13:02.881Z,100.00
2022-12-25T02:15:51.496Z,100.00
2022-12-25T02:18:32.651Z,100.00
2022-12-25T02:21:05.444Z,100.00
2022-12-25T02:23:57.095Z,100.00
2022-12-25T02:26:45.711Z,100.00
2022-12-25T02:29:36.817Z,100.00
2022-12-25T02:32:26.023Z,100.00
2022-12-25T02:35:15.755Z,100.00
2022-12-25T02:38:00.607Z,100.00
2022-12-25T02:40:39.808Z,100.00
2022-12-25T02:43:37.187Z,100.00
2022-12-25T02:46:26.684Z,100.00
2022-12-25T02:49:15.307Z,100.00
2022-12-25T02:52:07.782Z,100.00
2022-12-25T02:54:56.688Z,100.00
2022-12-25T02:57:47.587Z,100.00
2022-12-25T03:00:33.793Z,100.00
2022-12-25T03:03:23.067Z,100.00
2022-12-25T03:06:11.695Z,100.00
2022-12-25T03:08:41.486Z,100.00
2022-12-25T03:11:30.090Z,100.00
2022-12-25T03:14:23.441Z,100.00
2022-12-25T03:16:59.636Z,100.00
2022-12-25T03:19:50.430Z,100.00
2022-12-25T03:23:03.276Z,100.00
2022-12-25T03:25:48.810Z,100.00
2022-12-25T03:28:15.525Z,100.00
2022-12-25T03:31:09.298Z,100.00
2022-12-25T03:34:12.878Z,100.00
2022-12-25T03:36:53.534Z,100.00
2022-12-25T03:39:48.094Z,100.00
2022-12-25T03:42:45.605Z,100.00
2022-12-25T03:45:43.712Z,100.00
2022-12-25T03:48:11.567Z,100.00
2022-12-25T03:51:03.951Z,100.00
2022-12-25T03:53:56.758Z,100.00
2022-12-25T03:56:43.867Z,100.00
2022-12-25T03:59:29.389Z,100.00
2022-12-25T04:02:14.988Z,100.00
2022-12-25T04:05:00.346Z,100.00
2022-12-25T04:07:45.438Z,100.00
2022-12-25T04:10:31.027Z,100.00
2022-12-25T04:13:16.368Z,100.00
2022-12-25T04:16:01.952Z,100.00
2022-12-25T04:18:46.833Z,100.00
2022-12-25T04:21:32.000Z,100.00
2022-12-25T04:24:17.611Z,100.00
2022-12-25T04:27:03.471Z,100.00
2022-12-25T04:29:56.233Z,100.00
2022-12-25T04:32:41.642Z,100.00
2022-12-25T04:35:27.605Z,100.00
2022-12-25T04:37:54.193Z,100.00
2022-12-25T04:40:21.293Z,100.00
2022-12-25T04:42:50.539Z,100.00
2022-12-25T04:45:17.721Z,100.00
2022-12-25T04:47:44.420Z,100.00
2022-12-25T04:50:11.409Z,100.00
2022-12-25T04:52:40.092Z,100.00
2022-12-25T04:55:08.953Z,100.00
2022-12-25T04:57:35.945Z,100.00
2022-12-25T05:00:02.842Z,100.00
2022-12-25T05:02:29.690Z,99.96
2022-12-25T05:04:56.502Z,99.85
2022-12-25T05:07:23.193Z,99.62
2022-12-25T05:09:49.918Z,99.75
2022-12-25T05:12:16.600Z,99.75
2022-12-25T05:14:43.194Z,99.71
2022-12-25T05:17:09.873Z,99.53
2022-12-25T05:19:36.633Z,99.54
2022-12-25T05:22:03.335Z,99.66
2022-12-25T05:24:29.943Z,99.83
2022-12-25T05:26:56.642Z,100.00
2022-12-25T05:29:23.373Z,100.00
2022-12-25T05:31:50.059Z,100.00
2022-12-25T05:34:19.865Z,100.00
2022-12-25T05:36:46.502Z,100.00
2022-12-25T05:39:13.337Z,100.00
2022-12-25T05:41:40.714Z,100.00
2022-12-25T05:44:07.400Z,100.00
2022-12-25T05:46:34.078Z,100.00
2022-12-25T05:49:00.780Z,100.00
2022-12-25T05:51:27.549Z,100.00
2022-12-25T05:53:54.451Z,100.00
2022-12-25T05:56:21.308Z,100.00
2022-12-25T05:58:48.084Z,100.00
2022-12-25T06:01:20.723Z,100.00
2022-12-25T06:03:47.689Z,100.00
2022-12-25T06:06:14.693Z,100.00
2022-12-25T06:08:41.490Z,100.00
2022-12-25T06:11:09.069Z,100.00
2022-12-25T06:13:36.688Z,100.00
2022-12-25T06:16:07.722Z,100.00
2022-12-25T06:18:43.420Z,100.00
2022-12-25T06:21:12.348Z,100.00
2022-12-25T06:23:39.784Z,100.00
2022-12-25T06:26:13.113Z,100.00
2022-12-25T06:28:39.957Z,99.94
2022-12-25T06:31:08.244Z,99.87
2022-12-25T06:33:35.687Z,100.00
2022-12-25T06:36:07.301Z,99.94
2022-12-25T06:38:33.860Z,99.96
2022-12-25T06:41:05.738Z,99.91
2022-12-25T06:43:32.352Z,99.93
2022-12-25T06:46:03.942Z,99.79
2022-12-25T06:48:30.592Z,99.39
2022-12-25T06:50:57.358Z,99.16
2022-12-25T06:53:25.281Z,98.99
2022-12-25T06:55:54.718Z,98.78
2022-12-25T06:58:21.387Z,98.73
2022-12-25T07:00:48.091Z,98.50
2022-12-25T07:03:20.354Z,98.56
2022-12-25T07:05:47.424Z,98.34
2022-12-25T07:08:14.479Z,97.80
2022-12-25T07:10:41.038Z,97.83
2022-12-25T07:13:07.735Z,97.39
2022-12-25T07:15:34.383Z,97.12
2022-12-25T07:18:01.156Z,96.96
2022-12-25T07:20:27.757Z,96.98
2022-12-25T07:22:54.384Z,96.82
2022-12-25T07:25:20.956Z,96.85
2022-12-25T07:27:47.701Z,96.85
2022-12-25T07:30:14.469Z,96.54
2022-12-25T07:32:44.326Z,96.77
2022-12-25T07:35:15.838Z,96.53
2022-12-25T07:37:42.767Z,96.55
2022-12-25T07:40:10.228Z,96.60
2022-12-25T07:42:36.836Z,96.44
2022-12-25T07:45:03.943Z,96.43
2022-12-25T07:47:30.805Z,96.27
2022-12-25T07:49:57.386Z,96.05
2022-12-25T07:52:24.101Z,95.80
2022-12-25T07:54:50.714Z,95.58
2022-12-25T07:57:17.373Z,95.11
2022-12-25T07:59:44.380Z,94.86
2022-12-25T08:02:13.168Z,94.59
2022-12-25T08:05:13.900Z,94.12
2022-12-25T08:07:41.036Z,94.23
2022-12-25T08:10:08.441Z,94.24
2022-12-25T08:12:35.087Z,94.22
2022-12-25T08:15:05.112Z,94.50
2022-12-25T08:17:49.935Z,94.16
2022-12-25T08:20:16.458Z,94.06
2022-12-25T08:22:43.876Z,93.75
2022-12-25T08:25:20.452Z,93.47
2022-12-25T08:27:47.103Z,92.99
2022-12-25T08:30:14.011Z,92.65
2022-12-25T08:32:43.811Z,92.20
2022-12-25T08:35:10.624Z,91.66
2022-12-25T08:37:37.323Z,91.40
2022-12-25T08:40:04.426Z,91.02
2022-12-25T08:42:31.567Z,91.05
2022-12-25T08:44:58.155Z,91.07
2022-12-25T08:47:24.865Z,90.83
2022-12-25T08:50:04.602Z,90.87
2022-12-25T08:52:31.461Z,90.90
2022-12-25T08:54:58.080Z,90.38
2022-12-25T08:57:24.739Z,90.37
2022-12-25T08:59:51.422Z,90.08
2022-12-25T09:02:19.017Z,89.85
2022-12-25T09:04:52.095Z,89.54
2022-12-25T09:07:32.345Z,89.33
2022-12-25T09:10:09.209Z,89.29
2022-12-25T09:12:35.970Z,89.08
2022-12-25T09:15:02.784Z,88.31
2022-12-25T09:17:38.770Z,87.85
2022-12-25T09:20:07.005Z,87.92
2022-12-25T09:22:39.974Z,88.00
2022-12-25T09:25:15.579Z,87.89
2022-12-25T09:27:53.051Z,88.18
2022-12-25T09:30:20.044Z,88.00
2022-12-25T09:32:46.842Z,87.74
2022-12-25T09:35:14.406Z,88.10
2022-12-25T09:37:41.118Z,88.22
2022-12-25T09:40:08.477Z,87.74
2022-12-25T09:42:35.422Z,87.82
2022-12-25T09:45:17.650Z,87.04
2022-12-25T09:47:48.027Z,86.90
2022-12-25T09:50:25.208Z,86.26
2022-12-25T09:53:17.125Z,85.70
2022-12-25T09:55:49.874Z,85.12
2022-12-25T09:58:16.559Z,84.75
2022-12-25T10:00:51.773Z,84.23
2022-12-25T10:03:43.618Z,83.82
2022-12-25T10:06:30.646Z,83.59
2022-12-25T10:09:29.641Z,83.26
2022-12-25T10:12:14.640Z,82.93
2022-12-25T10:14:53.225Z,82.65
2022-12-25T10:17:41.674Z,82.53
2022-12-25T10:20:45.871Z,82.49
2022-12-25T10:23:18.592Z,82.31
2022-12-25T10:25:46.890Z,82.57
2022-12-25T10:28:21.337Z,81.84
2022-12-25T10:30:50.181Z,81.87
2022-12-25T10:33:17.568Z,81.60
2022-12-25T10:35:45.395Z,81.66
2022-12-25T10:38:18.732Z,81.78
2022-12-25T10:41:12.835Z,81.78
2022-12-25T10:43:48.984Z,82.17
2022-12-25T10:46:17.288Z,82.63
2022-12-25T10:48:49.775Z,83.03
2022-12-25T10:51:35.892Z,83.02
2022-12-25T10:54:05.228Z,82.77
2022-12-25T10:56:31.936Z,82.81
2022-12-25T10:59:10.995Z,83.04
2022-12-25T11:01:37.771Z,82.62
2022-12-25T11:04:04.638Z,81.68
2022-12-25T11:06:32.690Z,82.06
2022-12-25T11:09:02.873Z,82.08
2022-12-25T11:11:30.587Z,81.34
2022-12-25T11:14:03.027Z,80.98
2022-12-25T11:16:38.424Z,80.87
2022-12-25T11:19:29.747Z,80.85
2022-12-25T11:21:59.731Z,81.36
2022-12-25T11:24:29.290Z,81.37
2022-12-25T11:26:58.435Z,80.87
2022-12-25T11:30:09.982Z,80.36
2022-12-25T11:32:48.835Z,80.31
2022-12-25T11:35:18.010Z,79.98
2022-12-25T11:37:52.510Z,79.65
2022-12-25T11:40:24.496Z,79.08
2022-12-25T11:43:20.039Z,79.03
2022-12-25T11:45:53.205Z,77.94
2022-12-25T11:48:28.352Z,77.17
2022-12-25T11:50:59.434Z,77.55
2022-12-25T11:53:33.379Z,76.98
2022-12-25T11:56:08.744Z,76.38
2022-12-25T11:58:38.252Z,76.02
2022-12-25T12:01:27.591Z,75.77
2022-12-25T12:03:55.223Z,75.78
2022-12-25T12:06:36.237Z,75.84
2022-12-25T12:09:24.507Z,76.03
2022-12-25T12:12:06.524Z,76.19
2022-12-25T12:14:53.645Z,75.81
2022-12-25T12:17:20.375Z,75.82
2022-12-25T12:19:47.074Z,76.16
2022-12-25T12:22:22.623Z,76.62
2022-12-25T12:25:01.547Z,75.87
2022-12-25T12:27:36.159Z,76.47
2022-12-25T12:30:04.493Z,75.95
2022-12-25T12:32:42.912Z,76.47
2022-12-25T12:35:17.177Z,76.57
2022-12-25T12:37:46.334Z,76.74
2022-12-25T12:40:39.327Z,76.40
2022-12-25T12:43:21.167Z,76.03
2022-12-25T12:45:56.603Z,75.79
2022-12-25T12:48:27.869Z,75.70
2022-12-25T12:51:29.208Z,75.69
2022-12-25T12:54:23.762Z,75.82
2022-12-25T12:56:59.356Z,75.57
2022-12-25T12:59:27.238Z,75.60
2022-12-25T13:02:07.834Z,74.98
2022-12-25T13:04:45.280Z,74.81
2022-12-25T13:07:32.180Z,75.33
2022-12-25T13:10:21.264Z,75.66
2022-12-25T13:12:53.377Z,75.88
2022-12-25T13:15:24.766Z,75.67
2022-12-25T13:17:51.672Z,76.00
2022-12-25T13:20:46.507Z,76.30
2022-12-25T13:23:24.655Z,76.61
2022-12-25T13:26:00.355Z,76.44
2022-12-25T13:28:29.705Z,76.51
2022-12-25T13:31:19.895Z,76.04
2022-12-25T13:33:52.824Z,76.16
2022-12-25T13:36:19.710Z,76.09
2022-12-25T13:38:49.160Z,75.97
2022-12-25T13:41:39.694Z,76.33
2022-12-25T13:44:18.281Z,76.27
2022-12-25T13:46:46.628Z,76.06
2022-12-25T13:49:17.743Z,75.88
2022-12-25T13:51:45.245Z,76.29
2022-12-25T13:54:13.968Z,76.57
2022-12-25T13:56:50.569Z,76.69
2022-12-25T13:59:20.203Z,76.83
2022-12-25T14:01:48.651Z,77.25
2022-12-25T14:04:24.062Z,77.83
2022-12-25T14:06:52.083Z,76.77
2022-12-25T14:09:19.678Z,77.13
2022-12-25T14:11:52.056Z,77.30
2022-12-25T14:14:24.750Z,77.08
2022-12-25T14:16:55.017Z,77.36
2022-12-25T14:19:24.358Z,77.83
2022-12-25T14:22:07.610Z,77.87
2022-12-25T14:24:34.951Z,78.29
2022-12-25T14:27:07.164Z,77.93
2022-12-25T14:29:44.766Z,78.15
2022-12-25T14:32:17.264Z,77.65
2022-12-25T14:34:46.746Z,78.03
2022-12-25T14:37:26.316Z,77.94
2022-12-25T14:40:02.482Z,78.48
2022-12-25T14:42:32.437Z,78.46
2022-12-25T14:45:01.401Z,78.45
2022-12-25T14:47:28.568Z,78.77
2022-12-25T14:49:57.520Z,79.19
2022-12-25T14:52:46.865Z,79.31
2022-12-25T14:55:28.836Z,79.70
2022-12-25T14:58:04.675Z,80.02
2022-12-25T15:00:41.084Z,81.06
2022-12-25T15:03:21.279Z,82.22
2022-12-25T15:05:59.223Z,82.93
2022-12-25T15:08:26.123Z,83.68
2022-12-25T15:11:01.117Z,84.50
2022-12-25T15:13:29.844Z,84.68
2022-12-25T15:16:06.501Z,85.14
2022-12-25T15:18:45.772Z,85.40
2022-12-25T15:21:15.891Z,85.64
2022-12-25T15:23:44.870Z,86.16
2022-12-25T15:26:15.183Z,86.51
2022-12-25T15:28:42.219Z,86.93
2022-12-25T15:31:19.644Z,86.66
2022-12-25T15:33:46.342Z,87.11
2022-12-25T15:36:15.203Z,87.10
2022-12-25T15:38:45.043Z,87.82
2022-12-25T15:41:36.365Z,88.01
2022-12-25T15:44:05.645Z,88.41
2022-12-25T15:46:34.001Z,88.61
2022-12-25T15:49:00.882Z,89.11
2022-12-25T15:51:27.577Z,89.37
2022-12-25T15:53:54.276Z,89.71
2022-12-25T15:56:26.796Z,89.64
2022-12-25T15:58:53.358Z,89.67
2022-12-25T16:01:20.954Z,89.61
2022-12-25T16:03:48.268Z,89.77
2022-12-25T16:06:17.598Z,89.90
2022-12-25T16:08:44.925Z,90.37
2022-12-25T16:11:11.930Z,90.65
2022-12-25T16:13:43.043Z,90.51
2022-12-25T16:16:09.736Z,90.63
2022-12-25T16:18:41.912Z,90.45
2022-12-25T16:21:16.756Z,90.63
2022-12-25T16:23:43.965Z,90.74
2022-12-25T16:26:11.098Z,90.72
2022-12-25T16:28:37.955Z,90.85
2022-12-25T16:31:04.867Z,91.19
2022-12-25T16:33:33.098Z,91.33
2022-12-25T16:36:02.664Z,91.86
2022-12-25T16:38:29.268Z,91.81
2022-12-25T16:40:58.783Z,92.09
2022-12-25T16:43:26.036Z,92.31
2022-12-25T16:45:53.121Z,92.45
2022-12-25T16:48:20.113Z,92.23
2022-12-25T16:50:49.471Z,92.14
2022-12-25T16:53:21.329Z,92.31
2022-12-25T16:55:47.902Z,92.33
2022-12-25T16:58:14.508Z,92.39
2022-12-25T17:00:48.865Z,92.39
2022-12-25T17:03:16.258Z,92.45
2022-12-25T17:05:43.107Z,92.58
2022-12-25T17:08:09.843Z,92.86
2022-12-25T17:10:38.799Z,93.07
2022-12-25T17:13:05.580Z,93.34
2022-12-25T17:15:32.193Z,93.56
2022-12-25T17:17:58.862Z,93.51
2022-12-25T17:20:26.070Z,93.69
2022-12-25T17:22:54.007Z,93.74
2022-12-25T17:25:20.631Z,93.79
2022-12-25T17:27:50.610Z,93.90
2022-12-25T17:30:17.477Z,93.78
2022-12-25T17:32:44.129Z,93.69
2022-12-25T17:35:10.887Z,93.48
2022-12-25T17:37:38.249Z,93.59
2022-12-25T17:40:05.447Z,93.54
2022-12-25T17:42:32.244Z,93.75
2022-12-25T17:44:59.481Z,93.88
2022-12-25T17:47:29.831Z,94.33
2022-12-25T17:49:56.530Z,94.38
2022-12-25T17:52:23.211Z,94.49
2022-12-25T17:54:50.568Z,94.53
2022-12-25T17:57:17.167Z,94.80
2022-12-25T17:59:43.790Z,94.77
2022-12-25T18:02:12.302Z,94.81
2022-12-25T18:04:38.996Z,95.01
2022-12-25T18:07:06.937Z,95.18
2022-12-25T18:09:33.631Z,94.81
2022-12-25T18:12:00.283Z,94.72
2022-12-25T18:14:26.900Z,94.69
2022-12-25T18:16:53.645Z,94.78
2022-12-25T18:19:20.477Z,94.65
2022-12-25T18:21:47.991Z,94.86
2022-12-25T18:24:14.861Z,94.68
2022-12-25T18:26:41.528Z,94.45
2022-12-25T18:29:08.180Z,94.40
2022-12-25T18:34:01.765Z,94.40
2022-12-25T18:36:29.776Z,94.37
2022-12-25T18:38:58.136Z,94.69
2022-12-25T18:41:25.610Z,94.72
2022-12-25T18:43:55.591Z,94.86
2022-12-25T18:46:26.579Z,94.94
2022-12-25T18:48:55.859Z,95.08
2022-12-25T18:51:22.815Z,94.76
2022-12-25T18:53:49.591Z,95.03
2022-12-25T18:56:18.576Z,94.96
2022-12-25T18:58:47.299Z,95.10
2022-12-25T19:01:23.522Z,95.25
2022-12-25T19:03:51.928Z,95.45
2022-12-25T19:06:25.372Z,95.41
2022-12-25T19:09:02.073Z,95.66
2022-12-25T19:11:29.142Z,95.72
2022-12-25T19:13:56.853Z,95.67
2022-12-25T19:16:23.690Z,95.68
2022-12-25T19:18:50.504Z,95.24
2022-12-25T19:21:17.141Z,95.16
2022-12-25T19:23:44.296Z,95.41
2022-12-25T19:26:14.169Z,95.57
2022-12-25T19:28:41.669Z,95.52
2022-12-25T19:31:10.238Z,95.38
2022-12-25T19:33:40.670Z,95.32
2022-12-25T19:36:11.576Z,95.33
2022-12-25T19:38:40.354Z,94.92
2022-12-25T19:41:12.032Z,94.99
2022-12-25T19:43:40.593Z,94.76
2022-12-25T19:46:17.950Z,94.81
2022-12-25T19:48:45.258Z,94.95
2022-12-25T19:51:16.180Z,95.03
2022-12-25T19:53:42.927Z,94.94
2022-12-25T19:56:09.602Z,95.19
2022-12-25T19:58:38.107Z,95.16
2022-12-25T20:01:08.427Z,95.37
2022-12-25T20:03:38.871Z,95.43
2022-12-25T20:06:18.977Z,95.25
2022-12-25T20:08:50.357Z,95.16
2022-12-25T20:11:17.863Z,95.11
2022-12-25T20:13:45.132Z,95.06
2022-12-25T20:16:14.757Z,95.18
2022-12-25T20:18:41.961Z,94.93
2022-12-25T20:21:14.770Z,95.40
2022-12-25T20:23:55.126Z,95.46
2022-12-25T20:26:32.692Z,95.55
2022-12-25T20:29:01.663Z,95.49
2022-12-25T20:31:33.758Z,95.29
2022-12-25T20:34:05.703Z,95.32
2022-12-25T20:36:37.141Z,95.26
2022-12-25T20:39:09.477Z,95.21
2022-12-25T20:42:15.727Z,95.18
2022-12-25T20:44:42.472Z,95.06
2022-12-25T20:47:26.821Z,95.19
2022-12-25T20:49:57.948Z,95.34
2022-12-25T20:52:24.529Z,95.45
2022-12-25T20:54:51.325Z,95.49
2022-12-25T20:57:17.915Z,95.45
2022-12-25T20:59:44.524Z,95.43
2022-12-25T21:02:34.747Z,95.44
2022-12-25T21:05:00.257Z,95.47
2022-12-25T21:07:26.911Z,95.58
2022-12-25T21:09:53.572Z,95.82
2022-12-25T21:12:20.213Z,96.27
2022-12-25T21:14:46.845Z,96.41
2022-12-25T21:17:14.039Z,96.68
2022-12-25T21:19:40.798Z,96.94
2022-12-25T21:22:07.533Z,97.03
2022-12-25T21:24:34.157Z,97.59
2022-12-25T21:27:00.929Z,97.89
2022-12-25T21:29:27.587Z,98.29
2022-12-25T21:32:15.583Z,98.85
2022-12-25T21:34:42.279Z,98.85
2022-12-25T21:37:08.891Z,98.97
2022-12-25T21:39:35.654Z,98.82
2022-12-25T21:42:04.689Z,98.93
2022-12-25T21:44:31.417Z,98.93
2022-12-25T21:46:58.104Z,99.10
2022-12-25T21:49:43.420Z,99.31
2022-12-25T21:52:10.091Z,99.40
2022-12-25T21:54:37.429Z,99.51
2022-12-25T21:57:04.081Z,99.45
2022-12-25T21:59:30.787Z,99.42
2022-12-25T22:01:59.389Z,99.45
2022-12-25T22:04:26.435Z,99.77
2022-12-25T22:07:11.799Z,99.78
2022-12-25T22:09:38.527Z,99.56
2022-12-25T22:12:28.595Z,99.41
2022-12-25T22:15:03.103Z,99.45
2022-12-25T22:18:00.558Z,99.52
2022-12-25T22:20:38.106Z,99.57
2022-12-25T22:23:05.263Z,99.46
2022-12-25T22:25:31.930Z,99.35
2022-12-25T22:27:58.609Z,99.53
2022-12-25T22:30:30.751Z,99.56
2022-12-25T22:32:57.754Z,99.52
2022-12-25T22:35:24.857Z,99.41
2022-12-25T22:37:51.803Z,99.52
2022-12-25T22:40:19.870Z,99.95
2022-12-25T22:42:47.465Z,99.78
2022-12-25T22:45:14.311Z,99.69
2022-12-25T22:47:41.807Z,99.87
2022-12-25T22:50:09.967Z,99.86
2022-12-25T22:52:37.286Z,99.10
2022-12-25T22:55:05.279Z,99.39
2022-12-25T22:57:31.885Z,99.63
2022-12-25T22:59:58.516Z,99.34
2022-12-25T23:02:25.469Z,99.54
2022-12-25T23:04:52.255Z,99.45
2022-12-25T23:07:19.117Z,99.44
2022-12-25T23:09:45.756Z,99.65
2022-12-25T23:12:32.426Z,99.65
2022-12-25T23:14:59.202Z,99.65
2022-12-25T23:17:44.397Z,99.65
2022-12-25T23:20:32.395Z,100.00
2022-12-25T23:23:17.665Z,100.00
2022-12-25T23:26:03.051Z,100.00
2022-12-25T23:28:48.469Z,100.00
2022-12-25T23:31:15.253Z,100.00
2022-12-25T23:33:41.908Z,100.00
2022-12-25T23:36:08.583Z,100.00
2022-12-25T23:38:35.169Z,100.00
2022-12-25T23:41:01.775Z,100.00
2022-12-25T23:43:28.405Z,100.00
2022-12-25T23:45:54.988Z,100.00
2022-12-25T23:48:21.629Z,100.00
2022-12-25T23:50:48.414Z,100.00
2022-12-25T23:53:15.069Z,100.00
2022-12-25T23:55:42.809Z,100.00
2022-12-25T23:58:09.835Z,100.00
